Aviation Digital Data Service (ADDS)

Output produced by METARs form (0812 UTC 24 May 2018)
found at http://www.aviationweather.gov/adds/metars/
 
TAF COR LDSB 231129Z 2312/2412 13010KT 9999 FEW040 TX23/2312Z TN16/2402Z 
     PROB30 
     TEMPO 2312/2316 -TSRA FEW030CB SCT040 
     BECMG 2319/2321 33007KT 
     BECMG 2409/2411 22008KT
       
LDDU 240800Z 24005KT 150V290 9999 FEW014 21/16 Q1016 BECMG FM0900 30010KT
TAF LDDU 240525Z 2406/2506 VRB02KT 9999 FEW030 TX25/2413Z TN18/2504Z 
     BECMG 2408/2410 29010KT 
     PROB30 
     TEMPO 2411/2416 02015KT -TSRA FEW035CB SCT040 
     BECMG 2415/2417 30006KT 
     TEMPO 2423/2506 02012KT
       
LDOS 240800Z 09005KT 060V140 CAVOK 22/18 Q1017
TAF LDOS 240525Z 2406/2506 04005KT 9999 FEW040 TX28/2413Z TN15/2504Z 
     PROB40 
     TEMPO 2413/2421 TSRA FEW030CB SCT035 
     PROB30 2501/2506 0300 FG VV001
       
LDPL 240800Z 26006KT 220V330 CAVOK 24/19 Q1015 NOSIG
TAF LDPL 240525Z 2406/2506 VRB02KT CAVOK TX25/2414Z TN17/2504Z 
     BECMG 2408/2410 28008KT 
     BECMG 2417/2419 VRB02KT
       
LDRI 240800Z 35005KT 9999 FEW050 24/15 Q1016
TAF LDRI 240525Z 2406/2506 VRB02KT 9999 SCT035 TX25/2412Z TN19/2504Z 
     TEMPO 2406/2418 32007KT 
     PROB30 
     TEMPO 2411/2415 TS FEW030CB SCT035
       
LDDU 240800Z 24005KT 150V290 9999 FEW014 21/16 Q1016 BECMG FM0900 30010KT
TAF LDDU 240525Z 2406/2506 VRB02KT 9999 FEW030 TX25/2413Z TN18/2504Z 
     BECMG 2408/2410 29010KT 
     PROB30 
     TEMPO 2411/2416 02015KT -TSRA FEW035CB SCT040 
     BECMG 2415/2417 30006KT 
     TEMPO 2423/2506 02012KT
       
LDOS 240800Z 09005KT 060V140 CAVOK 22/18 Q1017
TAF LDOS 240525Z 2406/2506 04005KT 9999 FEW040 TX28/2413Z TN15/2504Z 
     PROB40 
     TEMPO 2413/2421 TSRA FEW030CB SCT035 
     PROB30 2501/2506 0300 FG VV001
       
LDPL 240800Z 26006KT 220V330 CAVOK 24/19 Q1015 NOSIG
TAF LDPL 240525Z 2406/2506 VRB02KT CAVOK TX25/2414Z TN17/2504Z 
     BECMG 2408/2410 28008KT 
     BECMG 2417/2419 VRB02KT
       
LDRI 240800Z 35005KT 9999 FEW050 24/15 Q1016
TAF LDRI 240525Z 2406/2506 VRB02KT 9999 SCT035 TX25/2412Z TN19/2504Z 
     TEMPO 2406/2418 32007KT 
     PROB30 
     TEMPO 2411/2415 TS FEW030CB SCT035
       
TAF COR LDSB 231129Z 2312/2412 13010KT 9999 FEW040 TX23/2312Z TN16/2402Z 
     PROB30 
     TEMPO 2312/2316 -TSRA FEW030CB SCT040 
     BECMG 2319/2321 33007KT 
     BECMG 2409/2411 22008KT
       
LDSP 240800Z 11006KT CAVOK 22/17 Q1015 NOSIG
TAF LDSP 240525Z 2406/2506 VRB02KT CAVOK TX27/2412Z TN18/2504Z 
     BECMG 2409/2411 23008KT 
     PROB30 
     TEMPO 2411/2415 33012KT -TSRA FEW035CB SCT040 
     BECMG 2415/2417 33006KT
       
LDZA 240800Z 09005KT 060V140 9999 FEW025 21/16 Q1018 NOSIG
TAF LDZA 240525Z 2406/2506 07005KT 9999 FEW040 TX25/2414Z TN16/2504Z 
     PROB40 
     TEMPO 2410/2418 TSRA SCT025CB SCT035 
     PROB30 
     TEMPO 2418/2504 TSRA FEW040CB 
     PROB30 
     TEMPO 2500/2506 0300 FG
       
LDZD 240800Z VRB05KT CAVOK 23/18 Q1016 BECMG FM0900 32010KT
TAF LDZD 240525Z 2406/2506 VRB02KT 9999 FEW020 TX26/2412Z TN16/2504Z 
     BECMG 2409/2411 32010KT 
     PROB30 
     TEMPO 2411/2416 TSRA FEW030CB SCT035 
     BECMG 2417/2419 05006KT
       
LDSP 240800Z 11006KT CAVOK 22/17 Q1015 NOSIG
TAF LDSP 240525Z 2406/2506 VRB02KT CAVOK TX27/2412Z TN18/2504Z 
     BECMG 2409/2411 23008KT 
     PROB30 
     TEMPO 2411/2415 33012KT -TSRA FEW035CB SCT040 
     BECMG 2415/2417 33006KT
       
LDZD 240800Z VRB05KT CAVOK 23/18 Q1016 BECMG FM0900 32010KT
TAF LDZD 240525Z 2406/2506 VRB02KT 9999 FEW020 TX26/2412Z TN16/2504Z 
     BECMG 2409/2411 32010KT 
     PROB30 
     TEMPO 2411/2416 TSRA FEW030CB SCT035 
     BECMG 2417/2419 05006KT
       
LDZA 240800Z 09005KT 060V140 9999 FEW025 21/16 Q1018 NOSIG
TAF LDZA 240525Z 2406/2506 07005KT 9999 FEW040 TX25/2414Z TN16/2504Z 
     PROB40 
     TEMPO 2410/2418 TSRA SCT025CB SCT035 
     PROB30 
     TEMPO 2418/2504 TSRA FEW040CB 
     PROB30 
     TEMPO 2500/2506 0300 FG